createdAt,value
2023-04-02T00:00:25.183Z,88.2591
2023-04-02T00:01:33.241Z,87.7381
2023-04-02T00:02:41.373Z,86.6997
2023-04-02T00:03:49.429Z,86.8329
2023-04-02T00:04:57.433Z,87.4092
2023-04-02T00:06:05.495Z,87.5628
2023-04-02T00:07:13.537Z,87.7617
2023-04-02T00:08:21.556Z,88.1690
2023-04-02T00:09:29.639Z,87.8170
2023-04-02T00:10:37.689Z,88.4399
2023-04-02T00:11:45.739Z,88.3387
2023-04-02T00:12:53.809Z,87.9766
2023-04-02T00:14:01.850Z,87.7344
2023-04-02T00:15:09.934Z,88.0352
2023-04-02T00:16:18.097Z,88.4319
2023-04-02T00:17:26.135Z,88.3708
2023-04-02T00:18:34.173Z,88.8691
2023-04-02T00:19:42.322Z,88.1999
2023-04-02T00:20:50.352Z,88.2889
2023-04-02T00:21:58.478Z,88.2160
2023-04-02T00:23:06.452Z,88.0305
2023-04-02T00:24:14.526Z,87.2770
2023-04-02T00:25:22.638Z,87.1359
2023-04-02T00:26:30.598Z,87.3272
2023-04-02T00:27:38.592Z,87.1779
2023-04-02T00:28:46.787Z,86.8568
2023-04-02T00:29:54.760Z,87.5223
2023-04-02T00:31:02.957Z,87.9703
2023-04-02T00:32:11.077Z,88.3565
2023-04-02T00:33:19.076Z,88.4768
2023-04-02T00:34:27.086Z,88.6501
2023-04-02T00:35:35.361Z,88.9163
2023-04-02T00:36:43.277Z,88.8246
2023-04-02T00:37:51.353Z,90.3548
2023-04-02T00:38:59.358Z,89.5652
2023-04-02T00:40:07.519Z,89.3466
2023-04-02T00:41:15.480Z,89.9246
2023-04-02T00:42:23.515Z,89.2745
2023-04-02T00:43:31.587Z,89.4579
2023-04-02T00:44:39.591Z,88.6541
2023-04-02T00:45:47.694Z,89.0696
2023-04-02T00:46:55.832Z,89.2008
2023-04-02T00:48:03.979Z,89.9437
2023-04-02T00:49:12.028Z,89.1904
2023-04-02T00:50:19.999Z,88.7934
2023-04-02T00:51:28.101Z,88.3713
2023-04-02T00:52:36.206Z,88.0654
2023-04-02T00:53:44.280Z,89.1822
2023-04-02T00:54:52.330Z,89.8333
2023-04-02T00:56:00.302Z,89.6979
2023-04-02T00:57:08.367Z,88.6806
2023-04-02T00:58:16.415Z,88.4141
2023-04-02T00:59:24.469Z,88.8637
2023-04-02T01:00:32.719Z,89.0489
2023-04-02T01:01:40.775Z,87.9351
2023-04-02T01:02:48.867Z,87.7478
2023-04-02T01:03:56.808Z,88.9955
2023-04-02T01:05:04.924Z,88.8646
2023-04-02T01:06:13.036Z,88.0013
2023-04-02T01:07:20.997Z,87.7286
2023-04-02T01:08:29.051Z,88.2211
2023-04-02T01:09:37.171Z,87.9228
2023-04-02T01:10:45.111Z,87.7223
2023-04-02T01:11:53.209Z,87.7538
2023-04-02T01:13:01.239Z,87.5111
2023-04-02T01:14:09.328Z,87.7619
2023-04-02T01:15:17.460Z,86.9209
2023-04-02T01:16:25.875Z,87.7489
2023-04-02T01:17:33.699Z,88.6191
2023-04-02T01:18:41.668Z,88.1580
2023-04-02T01:19:49.710Z,88.3220
2023-04-02T01:20:57.795Z,88.8334
2023-04-02T01:22:05.877Z,88.3365
2023-04-02T01:23:13.974Z,87.5719
2023-04-02T01:24:21.952Z,87.4883
2023-04-02T01:25:29.962Z,89.4984
2023-04-02T01:26:38.013Z,89.2621
2023-04-02T01:27:46.134Z,89.4077
2023-04-02T01:28:54.146Z,89.6614
2023-04-02T01:30:02.401Z,87.8429
2023-04-02T01:31:10.489Z,87.6386
2023-04-02T01:32:18.448Z,87.6819
2023-04-02T01:33:26.556Z,87.4553
2023-04-02T01:34:34.680Z,87.5735
2023-04-02T01:35:42.753Z,87.6802
2023-04-02T01:36:50.709Z,87.7829
2023-04-02T01:37:58.840Z,88.2803
2023-04-02T01:39:06.875Z,87.9142
2023-04-02T01:40:14.849Z,88.1508
2023-04-02T01:41:22.868Z,87.4536
2023-04-02T01:42:30.949Z,87.1572
2023-04-02T01:43:38.990Z,86.6896
2023-04-02T01:44:47.218Z,86.7512
2023-04-02T01:45:55.265Z,87.7848
2023-04-02T01:47:03.309Z,88.2278
2023-04-02T01:48:11.358Z,87.9804
2023-04-02T01:49:19.503Z,87.5023
2023-04-02T01:50:27.588Z,86.3725
2023-04-02T01:51:35.633Z,86.1906
2023-04-02T01:52:43.596Z,87.0934
2023-04-02T01:53:51.719Z,88.5064
2023-04-02T01:54:59.674Z,87.7756
2023-04-02T01:56:07.790Z,87.4453
2023-04-02T01:57:15.833Z,88.0274
2023-04-02T01:58:23.897Z,88.1559
2023-04-02T01:59:32.001Z,87.4427
2023-04-02T02:00:40.180Z,88.1423
2023-04-02T02:01:48.209Z,87.8043
2023-04-02T02:02:56.324Z,87.9589
2023-04-02T02:04:04.276Z,88.3094
2023-04-02T02:05:12.380Z,87.3746
2023-04-02T02:06:20.390Z,86.3395
2023-04-02T02:07:28.539Z,87.2412
2023-04-02T02:08:36.613Z,86.9703
2023-04-02T02:09:44.678Z,86.6231
2023-04-02T02:10:52.687Z,85.5607
2023-04-02T02:12:00.735Z,85.4183
2023-04-02T02:13:08.870Z,85.4021
2023-04-02T02:14:16.819Z,84.7972
2023-04-02T02:15:24.800Z,84.7946
2023-04-02T02:16:32.969Z,85.2125
2023-04-02T02:17:41.036Z,85.4759
2023-04-02T02:18:49.187Z,85.6937
2023-04-02T02:19:57.204Z,85.3431
2023-04-02T02:21:05.241Z,85.8077
2023-04-02T02:22:13.293Z,84.7722
2023-04-02T02:23:21.362Z,85.0111
2023-04-02T02:24:29.496Z,85.5918
2023-04-02T02:25:37.875Z,85.6482
2023-04-02T02:26:45.557Z,84.7417
2023-04-02T02:27:53.643Z,84.7543
2023-04-02T02:29:01.629Z,84.5126
2023-04-02T02:30:09.723Z,84.6924
2023-04-02T02:31:17.907Z,85.4087
2023-04-02T02:32:25.902Z,85.1474
2023-04-02T02:33:33.947Z,86.0169
2023-04-02T02:34:41.998Z,85.7394
2023-04-02T02:35:50.187Z,86.5437
2023-04-02T02:36:58.208Z,87.1840
2023-04-02T02:38:06.220Z,87.2225
2023-04-02T02:39:14.254Z,87.5150
2023-04-02T02:40:22.334Z,88.6935
2023-04-02T02:41:30.444Z,89.2680
2023-04-02T02:42:38.556Z,89.1780
2023-04-02T02:43:46.429Z,88.2120
2023-04-02T02:44:54.504Z,87.7335
2023-04-02T02:46:02.604Z,87.7856
2023-04-02T02:47:10.676Z,87.4516
2023-04-02T02:48:18.846Z,87.0094
2023-04-02T02:49:26.836Z,87.2938
2023-04-02T02:50:34.908Z,87.4824
2023-04-02T02:51:42.973Z,87.0531
2023-04-02T02:52:51.070Z,86.7914
2023-04-02T02:53:59.155Z,85.5678
2023-04-02T02:55:07.228Z,85.3619
2023-04-02T02:56:15.210Z,85.4035
2023-04-02T02:57:23.401Z,85.6475
2023-04-02T02:58:31.317Z,86.3700
2023-04-02T02:59:39.383Z,86.1334
2023-04-02T03:00:47.468Z,86.1023
2023-04-02T03:01:55.492Z,84.8794
2023-04-02T03:03:03.764Z,85.7458
2023-04-02T03:04:11.757Z,85.6356
2023-04-02T03:05:19.833Z,84.7185
2023-04-02T03:06:27.891Z,84.7812
2023-04-02T03:07:35.904Z,84.6092
2023-04-02T03:08:44.003Z,84.8206
2023-04-02T03:09:52.017Z,84.6409
2023-04-02T03:11:00.144Z,85.1150
2023-04-02T03:12:08.196Z,85.8184
2023-04-02T03:13:16.152Z,85.6324
2023-04-02T03:14:24.196Z,85.0979
2023-04-02T03:15:32.300Z,85.3436
2023-04-02T03:16:40.350Z,85.5554
2023-04-02T03:17:48.446Z,85.3323
2023-04-02T03:18:56.555Z,85.3158
2023-04-02T03:20:04.697Z,84.7684
2023-04-02T03:21:12.674Z,84.5586
2023-04-02T03:22:20.809Z,84.7342
2023-04-02T03:23:28.860Z,85.1292
2023-04-02T03:24:36.917Z,85.3459
2023-04-02T03:25:44.968Z,85.0008
2023-04-02T03:26:53.036Z,85.0798
2023-04-02T03:28:01.198Z,85.2451
2023-04-02T03:29:09.182Z,84.6945
2023-04-02T03:30:17.155Z,84.4892
2023-04-02T03:31:25.278Z,84.5032
2023-04-02T03:32:33.379Z,85.0937
2023-04-02T03:33:41.509Z,85.8370
2023-04-02T03:34:49.592Z,85.8615
2023-04-02T03:35:57.630Z,85.9948
2023-04-02T03:37:05.739Z,86.1178
2023-04-02T03:38:13.715Z,86.4656
2023-04-02T03:39:21.869Z,86.1975
2023-04-02T03:40:29.922Z,86.1874
2023-04-02T03:41:37.934Z,85.7887
2023-04-02T03:42:46.112Z,85.4806
2023-04-02T03:43:53.991Z,85.5551
2023-04-02T03:45:02.078Z,85.2529
2023-04-02T03:46:10.163Z,84.4984
2023-04-02T03:47:18.202Z,85.0615
2023-04-02T03:48:26.404Z,84.5604
2023-04-02T03:49:34.476Z,84.5690
2023-04-02T03:50:42.500Z,84.2267
2023-04-02T03:51:50.529Z,84.6121
2023-04-02T03:52:58.697Z,84.9024
2023-04-02T03:54:06.619Z,85.0264
2023-04-02T03:55:14.730Z,85.4389
2023-04-02T03:56:22.770Z,85.1271
2023-04-02T03:57:31.018Z,85.5407
2023-04-02T03:58:38.826Z,85.0541
2023-04-02T03:59:47.347Z,85.0389
2023-04-02T04:00:54.964Z,84.5159
2023-04-02T04:02:03.004Z,84.9428
2023-04-02T04:03:11.327Z,84.8008
2023-04-02T04:04:19.317Z,84.0867
2023-04-02T04:05:27.214Z,85.0381
2023-04-02T04:06:35.313Z,85.5367
2023-04-02T04:07:43.476Z,85.2712
2023-04-02T04:08:51.514Z,85.1441
2023-04-02T04:09:59.593Z,86.2376
2023-04-02T04:11:07.612Z,85.4327
2023-04-02T04:12:15.715Z,84.9117
2023-04-02T04:13:23.717Z,85.0018
2023-04-02T04:14:31.867Z,86.2839
2023-04-02T04:15:39.918Z,86.0404
2023-04-02T04:16:47.969Z,85.6958
2023-04-02T04:17:55.941Z,85.4509
2023-04-02T04:19:03.980Z,85.1026
2023-04-02T04:20:12.074Z,84.3898
2023-04-02T04:21:20.140Z,84.9084
2023-04-02T04:22:28.213Z,84.8614
2023-04-02T04:23:36.270Z,83.8237
2023-04-02T04:24:44.373Z,84.1221
2023-04-02T04:25:52.473Z,84.2613
2023-04-02T04:27:00.549Z,84.0677
2023-04-02T04:28:08.633Z,83.9955
2023-04-02T04:29:16.600Z,83.7865
2023-04-02T04:30:24.670Z,84.0239
2023-04-02T04:31:32.809Z,83.8057
2023-04-02T04:32:40.821Z,83.1563
2023-04-02T04:33:48.776Z,83.3442
2023-04-02T04:34:56.874Z,83.0355
2023-04-02T04:36:04.925Z,83.1617
2023-04-02T04:37:13.116Z,83.2814
2023-04-02T04:38:21.190Z,83.6182
2023-04-02T04:39:29.272Z,84.0833
2023-04-02T04:40:37.234Z,84.7322
2023-04-02T04:41:45.308Z,84.3293
2023-04-02T04:42:53.448Z,83.9878
2023-04-02T04:44:01.474Z,83.5297
2023-04-02T04:45:09.509Z,83.1249
2023-04-02T04:46:17.606Z,83.4135
2023-04-02T04:47:25.545Z,83.5880
2023-04-02T04:48:35.221Z,82.8977
2023-04-02T04:49:46.576Z,82.1951
2023-04-02T04:50:54.694Z,83.0312
2023-04-02T04:52:02.748Z,82.1613
2023-04-02T04:53:10.817Z,82.3195
2023-04-02T04:54:18.897Z,82.7964
2023-04-02T04:55:27.046Z,82.5005
2023-04-02T04:56:34.995Z,82.1139
2023-04-02T04:57:43.061Z,82.3924
2023-04-02T04:58:51.100Z,82.3615
2023-04-02T04:59:59.256Z,82.1294
2023-04-02T05:01:07.247Z,81.5728
2023-04-02T05:02:15.275Z,80.6315
2023-04-02T05:03:23.266Z,81.4695
2023-04-02T05:04:31.425Z,81.4951
2023-04-02T05:05:39.588Z,81.4399
2023-04-02T05:06:47.652Z,82.3029
2023-04-02T05:07:57.006Z,81.9187
2023-04-02T05:09:08.633Z,81.7439
2023-04-02T05:10:16.676Z,81.7650
2023-04-02T05:11:24.772Z,82.6340
2023-04-02T05:12:32.794Z,82.5648
2023-04-02T05:13:40.826Z,82.1536
2023-04-02T05:14:48.777Z,82.1562
2023-04-02T05:15:56.959Z,83.2338
2023-04-02T05:17:04.922Z,83.2269
2023-04-02T05:18:13.068Z,82.9492
2023-04-02T05:19:21.133Z,83.7921
2023-04-02T05:20:29.229Z,83.9325
2023-04-02T05:21:37.263Z,84.2397
2023-04-02T05:22:45.444Z,84.4072
2023-04-02T05:23:53.432Z,84.1354
2023-04-02T05:25:01.513Z,84.6334
2023-04-02T05:26:09.523Z,83.7743
2023-04-02T05:27:17.652Z,83.5472
2023-04-02T05:28:25.701Z,83.3073
2023-04-02T05:29:33.686Z,83.6468
2023-04-02T05:30:41.712Z,84.5938
2023-04-02T05:31:49.814Z,83.4009
2023-04-02T05:32:57.859Z,84.1728
2023-04-02T05:34:06.075Z,83.9838
2023-04-02T05:35:14.107Z,83.1544
2023-04-02T05:36:22.161Z,82.7691
2023-04-02T05:37:30.174Z,83.4348
2023-04-02T05:38:38.261Z,83.6184
2023-04-02T05:39:46.352Z,82.8118
2023-04-02T05:40:54.436Z,82.6743
2023-04-02T05:42:02.505Z,82.1884
2023-04-02T05:43:10.553Z,82.7683
2023-04-02T05:44:18.519Z,82.8400
2023-04-02T05:45:26.613Z,82.2121
2023-04-02T05:46:34.725Z,80.9421
2023-04-02T05:47:42.742Z,81.5219
2023-04-02T05:48:50.916Z,82.0708
2023-04-02T05:49:58.937Z,81.2909
2023-04-02T05:51:07.040Z,80.5018
2023-04-02T05:52:15.116Z,81.5889
2023-04-02T05:53:23.117Z,81.6796
2023-04-02T05:54:31.201Z,81.1613
2023-04-02T05:55:39.232Z,81.3149
2023-04-02T05:56:47.419Z,81.7547
2023-04-02T05:58:10.446Z,82.2626
2023-04-02T05:59:08.214Z,82.4294
2023-04-02T06:00:16.265Z,81.5567
2023-04-02T06:01:24.357Z,81.1031
2023-04-02T06:02:32.543Z,81.2910
2023-04-02T06:03:40.725Z,80.8125
2023-04-02T06:04:48.659Z,80.1725
2023-04-02T06:05:56.725Z,79.3390
2023-04-02T06:07:04.815Z,79.0171
2023-04-02T06:08:12.908Z,78.5109
2023-04-02T06:09:20.970Z,77.7763
2023-04-02T06:10:29.058Z,77.6784
2023-04-02T06:11:37.042Z,78.4904
2023-04-02T06:12:45.159Z,79.9149
2023-04-02T06:13:53.115Z,79.7825
2023-04-02T06:15:01.240Z,80.2283
2023-04-02T06:16:09.236Z,80.4977
2023-04-02T06:17:17.310Z,79.6342
2023-04-02T06:18:25.405Z,78.2639
2023-04-02T06:19:33.543Z,77.8267
2023-04-02T06:20:41.594Z,77.4422
2023-04-02T06:21:49.594Z,77.9573
2023-04-02T06:22:57.754Z,78.1688
2023-04-02T06:24:05.761Z,78.2922
2023-04-02T06:25:13.874Z,78.3163
2023-04-02T06:26:21.953Z,76.7750
2023-04-02T06:27:29.979Z,76.3146
2023-04-02T06:28:37.930Z,76.5307
2023-04-02T06:29:46.002Z,76.5112
2023-04-02T06:30:54.098Z,77.4654
2023-04-02T06:32:02.182Z,77.2498
2023-04-02T06:33:10.239Z,77.2621
2023-04-02T06:34:18.332Z,76.5517
2023-04-02T06:35:26.433Z,76.9593
2023-04-02T06:36:34.596Z,76.1029
2023-04-02T06:37:42.564Z,77.9634
2023-04-02T06:38:50.563Z,77.6905
2023-04-02T06:39:58.657Z,76.9408
2023-04-02T06:41:06.718Z,77.8455
2023-04-02T06:42:14.849Z,77.8067
2023-04-02T06:43:22.841Z,77.8608
2023-04-02T06:44:30.825Z,78.7786
2023-04-02T06:45:38.869Z,79.2285
2023-04-02T06:46:46.967Z,78.6857
2023-04-02T06:47:55.163Z,78.5641
2023-04-02T06:49:03.212Z,78.2293
2023-04-02T06:50:11.256Z,77.9834
2023-04-02T06:51:19.413Z,78.5476
2023-04-02T06:52:27.447Z,78.7654
2023-04-02T06:53:35.501Z,77.5904
2023-04-02T06:54:43.659Z,78.5269
2023-04-02T06:55:51.514Z,78.4351
2023-04-02T06:56:59.644Z,79.7554
2023-04-02T06:58:07.559Z,79.7869
2023-04-02T06:59:15.697Z,79.4121
2023-04-02T07:00:23.757Z,78.1099
2023-04-02T07:01:31.852Z,79.2326
2023-04-02T07:02:39.923Z,78.4785
2023-04-02T07:03:47.929Z,78.7038
2023-04-02T07:04:56.173Z,79.0188
2023-04-02T07:06:04.247Z,79.3288
2023-04-02T07:07:12.192Z,80.1410
2023-04-02T07:08:20.281Z,79.4414
2023-04-02T07:09:28.371Z,79.1003
2023-04-02T07:10:36.443Z,78.9170
2023-04-02T07:11:44.539Z,78.2739
2023-04-02T07:12:52.553Z,78.8416
2023-04-02T07:14:00.660Z,79.7175
2023-04-02T07:15:08.577Z,78.8227
2023-04-02T07:16:16.777Z,78.2714
2023-04-02T07:17:24.775Z,77.9578
2023-04-02T07:18:32.809Z,76.4788
2023-04-02T07:19:40.937Z,75.4124
2023-04-02T07:20:49.007Z,75.4151
2023-04-02T07:21:57.069Z,76.3181
2023-04-02T07:23:05.227Z,77.4662
2023-04-02T07:24:13.276Z,76.2349
2023-04-02T07:25:21.436Z,76.2202
2023-04-02T07:26:29.367Z,76.0543
2023-04-02T07:27:37.522Z,76.0151
2023-04-02T07:28:45.521Z,75.9040
2023-04-02T07:29:53.489Z,74.4372
2023-04-02T07:31:01.496Z,75.5930
2023-04-02T07:32:09.613Z,74.5874
2023-04-02T07:33:17.671Z,74.3268
2023-04-02T07:34:25.815Z,73.9785
2023-04-02T07:35:34.307Z,74.4217
2023-04-02T07:36:41.990Z,76.5937
2023-04-02T07:37:50.057Z,75.8921
2023-04-02T07:38:58.157Z,75.4770
2023-04-02T07:40:06.203Z,73.8938
2023-04-02T07:41:14.273Z,74.8947
2023-04-02T07:42:22.313Z,74.2331
2023-04-02T07:43:30.503Z,74.8591
2023-04-02T07:44:38.519Z,75.8616
2023-04-02T07:45:46.600Z,76.1201
2023-04-02T07:46:54.510Z,76.0578
2023-04-02T07:48:02.602Z,75.3247
2023-04-02T07:49:10.600Z,74.6061
2023-04-02T07:50:18.752Z,74.0207
2023-04-02T07:51:26.858Z,74.0044
2023-04-02T07:52:34.924Z,74.9823
2023-04-02T07:53:42.958Z,75.2333
2023-04-02T07:54:51.115Z,76.2926
2023-04-02T07:55:59.151Z,74.6807
2023-04-02T07:57:07.301Z,75.6394
2023-04-02T07:58:15.220Z,74.2823
2023-04-02T07:59:23.313Z,73.6456
2023-04-02T08:00:31.385Z,73.4625
2023-04-02T08:01:39.406Z,72.2804
2023-04-02T08:02:47.450Z,72.7687
2023-04-02T08:03:55.522Z,74.2419
2023-04-02T08:05:03.531Z,73.7952
2023-04-02T08:06:11.720Z,73.1748
2023-04-02T08:07:19.796Z,73.0556
2023-04-02T08:08:27.926Z,73.2370
2023-04-02T08:09:35.908Z,73.0888
2023-04-02T08:10:43.956Z,72.8323
2023-04-02T08:11:52.040Z,73.9304
2023-04-02T08:13:00.237Z,74.4908
2023-04-02T08:14:08.173Z,73.3060
2023-04-02T08:15:16.222Z,74.5765
2023-04-02T08:16:24.264Z,74.5964
2023-04-02T08:17:32.355Z,75.6332
2023-04-02T08:18:40.373Z,74.9689
2023-04-02T08:19:54.786Z,74.7699
2023-04-02T08:21:01.387Z,73.9260
2023-04-02T08:22:09.477Z,72.9263
2023-04-02T08:23:17.554Z,73.0340
2023-04-02T08:24:25.645Z,74.7410
2023-04-02T08:25:33.920Z,74.3108
2023-04-02T08:26:43.033Z,74.7398
2023-04-02T08:27:54.649Z,75.9110
2023-04-02T08:29:02.763Z,75.3263
2023-04-02T08:30:10.695Z,76.3853
2023-04-02T08:31:18.877Z,76.3555
2023-04-02T08:32:26.851Z,77.4164
2023-04-02T08:33:35.038Z,76.5871
2023-04-02T08:34:43.106Z,77.4511
2023-04-02T08:35:51.236Z,77.1850
2023-04-02T08:36:59.283Z,77.9890
2023-04-02T08:38:07.239Z,78.7887
2023-04-02T08:39:15.304Z,76.9006
2023-04-02T08:40:23.402Z,76.6888
2023-04-02T08:41:31.481Z,75.8707
2023-04-02T08:42:39.510Z,74.7564
2023-04-02T08:43:47.493Z,75.9153
2023-04-02T08:44:55.500Z,76.0616
2023-04-02T08:46:03.582Z,77.2025
2023-04-02T08:47:11.666Z,77.5397
2023-04-02T08:48:19.748Z,76.5736
2023-04-02T08:49:27.793Z,76.0250
2023-04-02T08:50:35.857Z,74.9813
2023-04-02T08:51:44.008Z,73.2595
2023-04-02T08:52:52.079Z,73.9281
2023-04-02T08:54:00.163Z,73.7319
2023-04-02T08:55:08.279Z,73.2784
2023-04-02T08:56:16.218Z,72.3634
2023-04-02T08:57:24.347Z,72.2646
2023-04-02T08:58:32.360Z,72.6211
2023-04-02T08:59:40.529Z,72.0480
2023-04-02T09:00:48.593Z,70.9675
2023-04-02T09:01:56.508Z,70.1108
2023-04-02T09:03:04.542Z,69.5558
2023-04-02T09:04:12.688Z,70.2009
2023-04-02T09:05:20.681Z,70.5990
2023-04-02T09:06:28.876Z,70.2777
2023-04-02T09:07:36.836Z,70.3957
2023-04-02T09:08:44.944Z,70.9128
2023-04-02T09:09:52.970Z,72.1169
2023-04-02T09:11:01.097Z,72.3848
2023-04-02T09:12:09.198Z,73.7740
2023-04-02T09:13:17.177Z,73.5295
2023-04-02T09:14:25.252Z,72.7718
2023-04-02T09:15:33.584Z,73.4579
2023-04-02T09:16:41.288Z,74.7923
2023-04-02T09:17:54.025Z,75.8192
2023-04-02T09:19:02.237Z,76.0495
2023-04-02T09:20:10.474Z,75.3556
2023-04-02T09:21:18.474Z,73.7731
2023-04-02T09:22:26.595Z,73.6780
2023-04-02T09:23:34.679Z,71.6529
2023-04-02T09:24:42.688Z,71.8183
2023-04-02T09:26:03.025Z,70.3178
2023-04-02T09:27:03.690Z,71.5282
2023-04-02T09:28:11.800Z,72.2266
2023-04-02T09:29:19.701Z,72.6387
2023-04-02T09:30:27.744Z,69.3426
2023-04-02T09:31:35.861Z,68.2993
2023-04-02T09:32:43.894Z,69.5768
2023-04-02T09:33:52.087Z,70.6273
2023-04-02T09:35:00.161Z,69.6575
2023-04-02T09:36:08.225Z,71.0699
2023-04-02T09:37:16.204Z,69.5505
2023-04-02T09:38:24.358Z,69.7901
2023-04-02T09:39:32.444Z,72.2837
2023-04-02T09:40:40.480Z,70.4174
2023-04-02T09:42:02.405Z,69.4031
2023-04-02T09:43:01.361Z,72.5028
2023-04-02T09:44:09.417Z,72.8289
2023-04-02T09:45:17.505Z,71.4847
2023-04-02T09:46:25.547Z,69.9560
2023-04-02T09:47:33.766Z,70.1285
2023-04-02T09:48:41.725Z,70.4901
2023-04-02T09:49:49.806Z,70.6381
2023-04-02T09:50:57.943Z,69.6196
2023-04-02T09:52:05.969Z,68.8655
2023-04-02T09:53:14.019Z,68.3515
2023-04-02T09:54:22.106Z,68.1516
2023-04-02T09:55:30.100Z,67.2223
2023-04-02T09:56:38.249Z,68.9792
2023-04-02T09:57:46.138Z,67.5065
2023-04-02T09:58:54.217Z,68.1712
2023-04-02T10:00:02.278Z,68.7057
2023-04-02T10:01:10.373Z,68.5691
2023-04-02T10:02:18.530Z,68.9732
2023-04-02T10:03:26.654Z,68.7388
2023-04-02T10:04:34.613Z,66.2069
2023-04-02T10:05:43.085Z,67.0785
2023-04-02T10:06:50.714Z,68.3190
2023-04-02T10:07:58.840Z,67.2864
2023-04-02T10:09:06.977Z,67.9578
2023-04-02T10:10:14.914Z,68.2820
2023-04-02T10:11:23.448Z,69.2628
2023-04-02T10:12:35.874Z,69.2046
2023-04-02T10:13:43.901Z,69.2300
2023-04-02T10:14:52.006Z,68.3554
2023-04-02T10:16:00.053Z,68.9127
2023-04-02T10:17:08.265Z,68.2445
2023-04-02T10:18:16.231Z,66.6667
2023-04-02T10:19:24.381Z,68.2737
2023-04-02T10:20:36.345Z,67.8373
2023-04-02T10:21:45.318Z,67.1465
2023-04-02T10:22:53.329Z,66.7253
2023-04-02T10:24:01.390Z,68.6051
2023-04-02T10:25:09.484Z,68.8577
2023-04-02T10:26:17.495Z,67.6788
2023-04-02T10:27:25.490Z,69.0756
2023-04-02T10:28:33.569Z,70.9894
2023-04-02T10:29:41.648Z,67.7887
2023-04-02T10:30:49.850Z,68.6050
2023-04-02T10:31:57.927Z,66.5304
2023-04-02T10:33:06.010Z,68.6362
2023-04-02T10:34:13.962Z,68.7751
2023-04-02T10:35:22.063Z,70.5671
2023-04-02T10:36:30.118Z,69.7869
2023-04-02T10:37:38.206Z,68.1461
2023-04-02T10:38:46.178Z,66.6832
2023-04-02T10:39:54.293Z,66.3126
2023-04-02T10:41:02.314Z,67.6340
2023-04-02T10:42:10.481Z,67.7497
2023-04-02T10:43:18.517Z,68.6691
2023-04-02T10:44:26.520Z,69.2379
2023-04-02T10:45:34.752Z,67.9198
2023-04-02T10:46:42.682Z,68.1369
2023-04-02T10:47:50.803Z,68.1680
2023-04-02T10:48:58.828Z,66.8903
2023-04-02T10:50:06.846Z,65.5274
2023-04-02T10:51:14.829Z,66.8238
2023-04-02T10:52:22.856Z,67.7038
2023-04-02T10:53:30.987Z,67.5231
2023-04-02T10:54:39.046Z,66.2486
2023-04-02T10:55:47.199Z,67.0285
2023-04-02T10:56:55.244Z,67.1971
2023-04-02T10:58:03.324Z,65.2402
2023-04-02T10:59:11.402Z,62.3457
2023-04-02T11:00:19.509Z,63.4513
2023-04-02T11:01:27.565Z,63.3752
2023-04-02T11:02:35.621Z,66.5700
2023-04-02T11:03:43.791Z,67.7298
2023-04-02T11:04:51.649Z,67.0096
2023-04-02T11:05:59.678Z,67.2049
2023-04-02T11:07:14.418Z,65.2495
2023-04-02T11:08:20.710Z,65.5878
2023-04-02T11:09:28.806Z,65.1646
2023-04-02T11:10:36.918Z,65.4526
2023-04-02T11:11:45.071Z,66.1826
2023-04-02T11:12:53.004Z,67.1798
2023-04-02T11:14:01.076Z,68.3193
2023-04-02T11:15:09.155Z,68.1096
2023-04-02T11:16:17.305Z,68.0562
2023-04-02T11:17:25.333Z,65.1739
2023-04-02T11:18:33.275Z,65.6752
2023-04-02T11:19:41.308Z,67.0031
2023-04-02T11:20:49.346Z,64.9007
2023-04-02T11:21:59.354Z,64.7751
2023-04-02T11:23:10.560Z,63.9427
2023-04-02T11:24:18.478Z,64.7150
2023-04-02T11:25:26.609Z,64.9247
2023-04-02T11:26:34.596Z,63.2382
2023-04-02T11:27:42.737Z,63.7906
2023-04-02T11:28:50.813Z,63.4176
2023-04-02T11:29:58.874Z,63.1931
2023-04-02T11:31:06.898Z,63.2058
2023-04-02T11:32:14.866Z,62.7121
2023-04-02T11:33:34.138Z,64.2480
2023-04-02T11:34:35.894Z,64.7346
2023-04-02T11:35:44.029Z,63.0332
2023-04-02T11:36:52.122Z,64.0438
2023-04-02T11:38:00.171Z,63.3613
2023-04-02T11:39:17.079Z,61.3451
2023-04-02T11:40:21.161Z,61.3170
2023-04-02T11:41:29.232Z,59.7543
2023-04-02T11:42:37.290Z,57.4090
2023-04-02T11:43:45.329Z,58.4631
2023-04-02T11:44:53.304Z,60.4299
2023-04-02T11:46:01.476Z,60.4710
2023-04-02T11:47:09.490Z,64.6941
2023-04-02T11:48:17.566Z,64.5630
2023-04-02T11:49:25.693Z,66.0544
2023-04-02T11:50:33.856Z,67.7567
2023-04-02T11:51:41.862Z,68.0345
2023-04-02T11:52:49.921Z,68.8694
2023-04-02T11:53:58.001Z,67.9767
2023-04-02T11:55:06.047Z,66.7283
2023-04-02T11:56:14.220Z,66.1177
2023-04-02T11:57:22.276Z,66.7607
2023-04-02T11:58:30.242Z,67.7290
2023-04-02T11:59:38.183Z,68.2631
2023-04-02T12:00:46.300Z,69.2352
2023-04-02T12:01:54.343Z,69.3510
2023-04-02T12:03:02.447Z,68.5655
2023-04-02T12:04:10.604Z,71.6842
2023-04-02T12:05:18.669Z,70.4937
2023-04-02T12:06:26.653Z,69.1185
2023-04-02T12:07:34.886Z,69.9905
2023-04-02T12:08:56.677Z,67.5223
2023-04-02T12:09:55.745Z,66.4609
2023-04-02T12:11:03.842Z,68.5364
2023-04-02T12:12:11.881Z,69.3434
2023-04-02T12:13:19.937Z,67.7045
2023-04-02T12:14:27.926Z,66.4886
2023-04-02T12:15:36.103Z,67.9607
2023-04-02T12:16:44.153Z,67.7645
2023-04-02T12:17:52.231Z,70.3159
2023-04-02T12:19:00.362Z,72.7279
2023-04-02T12:20:08.404Z,68.5820
2023-04-02T12:21:16.393Z,68.6233
2023-04-02T12:22:24.491Z,67.9046
2023-04-02T12:23:32.524Z,68.0676
2023-04-02T12:24:40.657Z,70.2175
2023-04-02T12:25:48.734Z,68.7067
2023-04-02T12:26:56.771Z,69.3849
2023-04-02T12:28:04.719Z,69.3698
2023-04-02T12:29:12.798Z,68.2146
2023-04-02T12:30:20.866Z,68.0924
2023-04-02T12:31:29.016Z,69.3220
2023-04-02T12:32:37.122Z,69.8274
2023-04-02T12:33:45.100Z,68.9034
2023-04-02T12:34:53.161Z,68.3344
2023-04-02T12:36:01.377Z,68.7694
2023-04-02T12:37:09.320Z,68.9692
2023-04-02T12:38:17.396Z,68.2468
2023-04-02T12:39:27.967Z,67.0020
2023-04-02T12:40:38.580Z,67.1564
2023-04-02T12:41:46.303Z,66.1671
2023-04-02T12:42:54.403Z,65.8292
2023-04-02T12:44:02.544Z,66.6646
2023-04-02T12:45:10.546Z,67.1333
2023-04-02T12:46:18.691Z,66.6498
2023-04-02T12:47:26.730Z,65.9000
2023-04-02T12:48:34.888Z,67.4253
2023-04-02T12:49:42.907Z,66.8439
2023-04-02T12:50:50.974Z,67.4317
2023-04-02T12:51:59.066Z,67.0932
2023-04-02T12:53:07.071Z,66.1191
2023-04-02T12:54:15.196Z,64.7643
2023-04-02T12:55:23.296Z,65.6256
2023-04-02T12:56:31.174Z,66.1862
2023-04-02T12:57:39.468Z,66.0060
2023-04-02T12:58:47.327Z,65.7700
2023-04-02T12:59:55.430Z,66.1624
2023-04-02T13:01:03.596Z,65.6051
2023-04-02T13:02:11.604Z,63.9790
2023-04-02T13:03:19.803Z,64.2428
2023-04-02T13:04:27.727Z,63.1537
2023-04-02T13:05:35.848Z,64.2908
2023-04-02T13:06:43.928Z,63.7341
2023-04-02T13:07:51.915Z,63.3334
2023-04-02T13:08:59.969Z,62.7449
2023-04-02T13:10:08.048Z,62.1405
2023-04-02T13:11:16.053Z,61.8062
2023-04-02T13:12:24.151Z,63.1969
2023-04-02T13:13:32.154Z,63.3951
2023-04-02T13:14:40.203Z,62.7183
2023-04-02T13:15:48.448Z,64.6113
2023-04-02T13:16:56.519Z,63.6704
2023-04-02T13:18:04.617Z,65.1157
2023-04-02T13:19:12.604Z,63.7814
2023-04-02T13:20:20.630Z,62.8983
2023-04-02T13:21:28.956Z,63.3727
2023-04-02T13:22:36.873Z,63.8740
2023-04-02T13:23:44.931Z,64.3968
2023-04-02T13:24:52.876Z,64.0709
2023-04-02T13:26:00.877Z,64.1471
2023-04-02T13:27:08.921Z,64.4786
2023-04-02T13:28:17.034Z,63.8641
2023-04-02T13:29:25.118Z,64.9926
2023-04-02T13:30:33.357Z,63.3837
2023-04-02T13:31:41.279Z,63.2839
2023-04-02T13:32:49.369Z,63.5704
2023-04-02T13:33:57.488Z,63.5780
2023-04-02T13:35:05.562Z,63.7381
2023-04-02T13:36:13.574Z,63.3536
2023-04-02T13:37:21.669Z,63.8236
2023-04-02T13:38:29.658Z,63.5964
2023-04-02T13:39:37.792Z,62.8104
2023-04-02T13:40:45.701Z,62.9691
2023-04-02T13:41:53.736Z,62.8444
2023-04-02T13:43:01.808Z,62.7632
2023-04-02T13:44:09.995Z,61.4494